sensor_id;sensor_type;location;lat;lon;timestamp;P1;durP1;ratioP1;P2;durP2;ratioP2
71095;SDS011;58753;49.440;11.126;2023-04-03T00:08:40;2.03;;;0.70;;
71095;SDS011;58753;49.440;11.126;2023-04-03T00:11:05;2.50;;;1.08;;
71095;SDS011;58753;49.440;11.126;2023-04-03T00:13:32;3.73;;;1.07;;
71095;SDS011;58753;49.440;11.126;2023-04-03T00:15:57;5.00;;;1.40;;
71095;SDS011;58753;49.440;11.126;2023-04-03T00:18:23;3.00;;;0.90;;
71095;SDS011;58753;49.440;11.126;2023-04-03T00:20:48;2.00;;;1.07;;
71095;SDS011;58753;49.440;11.126;2023-04-03T00:23:14;2.87;;;1.27;;
71095;SDS011;58753;49.440;11.126;2023-04-03T00:25:40;3.45;;;1.48;;
71095;SDS011;58753;49.440;11.126;2023-04-03T00:28:06;3.85;;;1.10;;
71095;SDS011;58753;49.440;11.126;2023-04-03T00:30:31;2.97;;;1.30;;
71095;SDS011;58753;49.440;11.126;2023-04-03T00:32:57;3.53;;;1.10;;
71095;SDS011;58753;49.440;11.126;2023-04-03T00:35:22;5.13;;;1.30;;
71095;SDS011;58753;49.440;11.126;2023-04-03T00:37:52;2.75;;;1.30;;
71095;SDS011;58753;49.440;11.126;2023-04-03T00:40:19;4.97;;;1.45;;
71095;SDS011;58753;49.440;11.126;2023-04-03T00:42:45;1.80;;;0.80;;
71095;SDS011;58753;49.440;11.126;2023-04-03T00:47:50;2.70;;;1.10;;
71095;SDS011;58753;49.440;11.126;2023-04-03T00:50:16;4.13;;;1.23;;
71095;SDS011;58753;49.440;11.126;2023-04-03T00:52:41;2.63;;;1.25;;
71095;SDS011;58753;49.440;11.126;2023-04-03T00:55:07;2.43;;;1.00;;
71095;SDS011;58753;49.440;11.126;2023-04-03T00:57:34;2.95;;;1.17;;
71095;SDS011;58753;49.440;11.126;2023-04-03T01:00:02;2.90;;;1.33;;
71095;SDS011;58753;49.440;11.126;2023-04-03T01:02:31;3.05;;;1.02;;
71095;SDS011;58753;49.440;11.126;2023-04-03T01:04:56;1.50;;;0.73;;
71095;SDS011;58753;49.440;11.126;2023-04-03T01:07:23;3.90;;;1.57;;
71095;SDS011;58753;49.440;11.126;2023-04-03T01:09:53;2.28;;;1.30;;
71095;SDS011;58753;49.440;11.126;2023-04-03T01:12:26;2.20;;;1.20;;
71095;SDS011;58753;49.440;11.126;2023-04-03T01:14:54;2.33;;;1.00;;
71095;SDS011;58753;49.440;11.126;2023-04-03T01:25:26;2.47;;;1.20;;
71095;SDS011;58753;49.440;11.126;2023-04-03T01:27:51;3.20;;;1.23;;
71095;SDS011;58753;49.440;11.126;2023-04-03T01:30:17;2.35;;;1.17;;
71095;SDS011;58753;49.440;11.126;2023-04-03T01:32:45;3.47;;;1.57;;
71095;SDS011;58753;49.440;11.126;2023-04-03T01:35:10;5.72;;;1.38;;
71095;SDS011;58753;49.440;11.126;2023-04-03T01:37:36;2.13;;;1.20;;
71095;SDS011;58753;49.440;11.126;2023-04-03T01:40:02;4.37;;;1.40;;
71095;SDS011;58753;49.440;11.126;2023-04-03T01:42:28;3.67;;;1.23;;
71095;SDS011;58753;49.440;11.126;2023-04-03T01:44:54;5.00;;;1.33;;
71095;SDS011;58753;49.440;11.126;2023-04-03T01:47:19;2.33;;;1.15;;
71095;SDS011;58753;49.440;11.126;2023-04-03T01:49:45;5.27;;;1.30;;
71095;SDS011;58753;49.440;11.126;2023-04-03T01:52:10;2.77;;;1.40;;
71095;SDS011;58753;49.440;11.126;2023-04-03T01:54:36;3.97;;;1.70;;
71095;SDS011;58753;49.440;11.126;2023-04-03T01:57:01;2.17;;;0.90;;
71095;SDS011;58753;49.440;11.126;2023-04-03T01:59:26;2.93;;;1.63;;
71095;SDS011;58753;49.440;11.126;2023-04-03T02:01:53;2.60;;;1.33;;
71095;SDS011;58753;49.440;11.126;2023-04-03T02:04:18;3.10;;;1.10;;
71095;SDS011;58753;49.440;11.126;2023-04-03T02:06:43;3.30;;;1.67;;
71095;SDS011;58753;49.440;11.126;2023-04-03T02:09:09;3.93;;;1.43;;
71095;SDS011;58753;49.440;11.126;2023-04-03T02:11:34;4.03;;;1.13;;
71095;SDS011;58753;49.440;11.126;2023-04-03T02:14:00;2.83;;;1.00;;
71095;SDS011;58753;49.440;11.126;2023-04-03T02:16:25;2.83;;;1.13;;
71095;SDS011;58753;49.440;11.126;2023-04-03T02:18:51;3.70;;;1.50;;
71095;SDS011;58753;49.440;11.126;2023-04-03T02:21:16;6.07;;;1.40;;
71095;SDS011;58753;49.440;11.126;2023-04-03T02:23:41;3.83;;;1.83;;
71095;SDS011;58753;49.440;11.126;2023-04-03T02:26:08;4.27;;;1.60;;
71095;SDS011;58753;49.440;11.126;2023-04-03T02:28:36;3.42;;;1.27;;
71095;SDS011;58753;49.440;11.126;2023-04-03T02:31:03;2.58;;;1.17;;
71095;SDS011;58753;49.440;11.126;2023-04-03T02:33:31;4.07;;;1.27;;
71095;SDS011;58753;49.440;11.126;2023-04-03T02:35:56;2.80;;;1.40;;
71095;SDS011;58753;49.440;11.126;2023-04-03T02:38:22;2.83;;;1.20;;
71095;SDS011;58753;49.440;11.126;2023-04-03T02:40:48;2.25;;;1.10;;
71095;SDS011;58753;49.440;11.126;2023-04-03T02:43:14;2.80;;;1.48;;
71095;SDS011;58753;49.440;11.126;2023-04-03T02:45:39;2.67;;;1.40;;
71095;SDS011;58753;49.440;11.126;2023-04-03T02:48:05;5.33;;;1.30;;
71095;SDS011;58753;49.440;11.126;2023-04-03T02:50:30;2.30;;;1.27;;
71095;SDS011;58753;49.440;11.126;2023-04-03T02:52:56;3.80;;;1.38;;
71095;SDS011;58753;49.440;11.126;2023-04-03T02:55:21;2.53;;;1.20;;
71095;SDS011;58753;49.440;11.126;2023-04-03T02:57:46;4.53;;;1.30;;
71095;SDS011;58753;49.440;11.126;2023-04-03T03:00:12;2.30;;;0.77;;
71095;SDS011;58753;49.440;11.126;2023-04-03T03:02:38;4.10;;;1.15;;
71095;SDS011;58753;49.440;11.126;2023-04-03T03:05:03;6.03;;;1.60;;
71095;SDS011;58753;49.440;11.126;2023-04-03T03:07:29;2.25;;;1.17;;
71095;SDS011;58753;49.440;11.126;2023-04-03T03:09:54;2.17;;;0.93;;
71095;SDS011;58753;49.440;11.126;2023-04-03T03:12:20;2.80;;;1.30;;
71095;SDS011;58753;49.440;11.126;2023-04-03T03:14:47;2.97;;;1.10;;
71095;SDS011;58753;49.440;11.126;2023-04-03T03:17:12;4.75;;;1.20;;
71095;SDS011;58753;49.440;11.126;2023-04-03T03:19:38;4.30;;;1.75;;
71095;SDS011;58753;49.440;11.126;2023-04-03T03:22:03;2.67;;;1.40;;
71095;SDS011;58753;49.440;11.126;2023-04-03T03:24:29;3.70;;;1.30;;
71095;SDS011;58753;49.440;11.126;2023-04-03T03:26:54;7.17;;;1.33;;
71095;SDS011;58753;49.440;11.126;2023-04-03T03:29:20;5.03;;;1.88;;
71095;SDS011;58753;49.440;11.126;2023-04-03T03:31:45;5.40;;;1.80;;
71095;SDS011;58753;49.440;11.126;2023-04-03T03:34:11;6.23;;;1.30;;
71095;SDS011;58753;49.440;11.126;2023-04-03T03:36:36;2.40;;;1.35;;
71095;SDS011;58753;49.440;11.126;2023-04-03T03:39:02;4.30;;;1.37;;
71095;SDS011;58753;49.440;11.126;2023-04-03T03:41:27;3.70;;;1.20;;
71095;SDS011;58753;49.440;11.126;2023-04-03T03:43:53;3.50;;;1.20;;
71095;SDS011;58753;49.440;11.126;2023-04-03T03:46:18;3.13;;;1.60;;
71095;SDS011;58753;49.440;11.126;2023-04-03T03:48:44;3.10;;;1.60;;
71095;SDS011;58753;49.440;11.126;2023-04-03T03:51:09;3.20;;;1.55;;
71095;SDS011;58753;49.440;11.126;2023-04-03T03:53:35;3.30;;;1.30;;
71095;SDS011;58753;49.440;11.126;2023-04-03T03:56:00;2.73;;;1.40;;
71095;SDS011;58753;49.440;11.126;2023-04-03T03:58:26;3.28;;;1.55;;
71095;SDS011;58753;49.440;11.126;2023-04-03T04:00:52;3.67;;;1.90;;
71095;SDS011;58753;49.440;11.126;2023-04-03T04:03:17;3.57;;;1.87;;
71095;SDS011;58753;49.440;11.126;2023-04-03T04:05:42;3.50;;;1.80;;
71095;SDS011;58753;49.440;11.126;2023-04-03T04:08:08;3.93;;;1.83;;
71095;SDS011;58753;49.440;11.126;2023-04-03T04:10:34;8.52;;;2.20;;
71095;SDS011;58753;49.440;11.126;2023-04-03T04:13:00;5.00;;;1.57;;
71095;SDS011;58753;49.440;11.126;2023-04-03T04:15:26;3.78;;;1.48;;
71095;SDS011;58753;49.440;11.126;2023-04-03T04:17:51;4.10;;;1.67;;
71095;SDS011;58753;49.440;11.126;2023-04-03T04:20:18;4.18;;;1.90;;
71095;SDS011;58753;49.440;11.126;2023-04-03T04:22:43;3.85;;;1.58;;
71095;SDS011;58753;49.440;11.126;2023-04-03T04:25:09;4.50;;;1.40;;
71095;SDS011;58753;49.440;11.126;2023-04-03T04:27:35;4.30;;;1.63;;
71095;SDS011;58753;49.440;11.126;2023-04-03T04:30:00;4.18;;;1.80;;
71095;SDS011;58753;49.440;11.126;2023-04-03T04:32:26;4.20;;;1.47;;
71095;SDS011;58753;49.440;11.126;2023-04-03T04:34:51;7.80;;;2.17;;
71095;SDS011;58753;49.440;11.126;2023-04-03T04:37:16;4.00;;;1.85;;
71095;SDS011;58753;49.440;11.126;2023-04-03T04:39:42;3.23;;;1.73;;
71095;SDS011;58753;49.440;11.126;2023-04-03T04:42:07;3.90;;;2.03;;
71095;SDS011;58753;49.440;11.126;2023-04-03T04:44:37;5.47;;;1.92;;
71095;SDS011;58753;49.440;11.126;2023-04-03T04:47:06;5.00;;;2.25;;
71095;SDS011;58753;49.440;11.126;2023-04-03T04:49:31;4.47;;;2.30;;
71095;SDS011;58753;49.440;11.126;2023-04-03T04:51:56;3.37;;;1.97;;
71095;SDS011;58753;49.440;11.126;2023-04-03T04:54:22;4.50;;;1.50;;
71095;SDS011;58753;49.440;11.126;2023-04-03T04:56:47;5.20;;;2.30;;
71095;SDS011;58753;49.440;11.126;2023-04-03T04:59:12;4.03;;;1.83;;
71095;SDS011;58753;49.440;11.126;2023-04-03T05:01:38;6.47;;;2.03;;
71095;SDS011;58753;49.440;11.126;2023-04-03T05:04:04;11.13;;;4.17;;
71095;SDS011;58753;49.440;11.126;2023-04-03T05:06:29;7.85;;;2.80;;
71095;SDS011;58753;49.440;11.126;2023-04-03T05:08:56;4.93;;;2.00;;
71095;SDS011;58753;49.440;11.126;2023-04-03T05:11:23;4.85;;;2.22;;
71095;SDS011;58753;49.440;11.126;2023-04-03T05:13:48;6.23;;;2.60;;
71095;SDS011;58753;49.440;11.126;2023-04-03T05:16:14;4.35;;;2.25;;
71095;SDS011;58753;49.440;11.126;2023-04-03T05:18:40;3.60;;;1.90;;
71095;SDS011;58753;49.440;11.126;2023-04-03T05:21:05;4.80;;;2.20;;
71095;SDS011;58753;49.440;11.126;2023-04-03T05:23:30;4.63;;;2.03;;
71095;SDS011;58753;49.440;11.126;2023-04-03T05:25:56;5.80;;;2.08;;
71095;SDS011;58753;49.440;11.126;2023-04-03T05:28:21;4.93;;;1.80;;
71095;SDS011;58753;49.440;11.126;2023-04-03T05:30:52;5.37;;;2.03;;
71095;SDS011;58753;49.440;11.126;2023-04-03T05:33:19;5.32;;;2.30;;
71095;SDS011;58753;49.440;11.126;2023-04-03T05:35:45;3.73;;;2.23;;
71095;SDS011;58753;49.440;11.126;2023-04-03T05:38:10;3.70;;;2.40;;
71095;SDS011;58753;49.440;11.126;2023-04-03T05:40:35;6.50;;;2.50;;
71095;SDS011;58753;49.440;11.126;2023-04-03T05:43:01;4.63;;;2.20;;
71095;SDS011;58753;49.440;11.126;2023-04-03T05:45:27;3.97;;;1.75;;
71095;SDS011;58753;49.440;11.126;2023-04-03T05:47:52;3.73;;;1.87;;
71095;SDS011;58753;49.440;11.126;2023-04-03T05:50:17;9.83;;;1.97;;
71095;SDS011;58753;49.440;11.126;2023-04-03T05:52:44;5.10;;;1.73;;
71095;SDS011;58753;49.440;11.126;2023-04-03T05:55:11;4.30;;;1.80;;
71095;SDS011;58753;49.440;11.126;2023-04-03T05:57:37;6.57;;;1.80;;
71095;SDS011;58753;49.440;11.126;2023-04-03T06:00:03;6.00;;;2.03;;
71095;SDS011;58753;49.440;11.126;2023-04-03T06:02:30;3.50;;;1.90;;
71095;SDS011;58753;49.440;11.126;2023-04-03T06:04:56;5.10;;;2.00;;
71095;SDS011;58753;49.440;11.126;2023-04-03T06:07:22;3.30;;;1.50;;
71095;SDS011;58753;49.440;11.126;2023-04-03T06:09:49;3.80;;;1.55;;
71095;SDS011;58753;49.440;11.126;2023-04-03T06:12:16;3.77;;;2.00;;
71095;SDS011;58753;49.440;11.126;2023-04-03T06:14:42;5.05;;;1.90;;
71095;SDS011;58753;49.440;11.126;2023-04-03T06:17:07;6.10;;;1.97;;
71095;SDS011;58753;49.440;11.126;2023-04-03T06:19:34;5.07;;;2.08;;
71095;SDS011;58753;49.440;11.126;2023-04-03T06:21:59;7.22;;;2.30;;
71095;SDS011;58753;49.440;11.126;2023-04-03T06:24:25;5.70;;;1.63;;
71095;SDS011;58753;49.440;11.126;2023-04-03T06:26:51;4.95;;;1.80;;
71095;SDS011;58753;49.440;11.126;2023-04-03T06:29:17;3.72;;;1.50;;
71095;SDS011;58753;49.440;11.126;2023-04-03T06:31:43;8.85;;;1.80;;
71095;SDS011;58753;49.440;11.126;2023-04-03T06:34:09;5.80;;;1.77;;
71095;SDS011;58753;49.440;11.126;2023-04-03T06:36:36;4.72;;;1.67;;
71095;SDS011;58753;49.440;11.126;2023-04-03T06:39:01;5.00;;;1.53;;
71095;SDS011;58753;49.440;11.126;2023-04-03T06:41:28;6.60;;;1.73;;
71095;SDS011;58753;49.440;11.126;2023-04-03T06:43:53;7.43;;;1.43;;
71095;SDS011;58753;49.440;11.126;2023-04-03T06:46:22;6.18;;;1.75;;
71095;SDS011;58753;49.440;11.126;2023-04-03T06:48:48;4.32;;;1.65;;
71095;SDS011;58753;49.440;11.126;2023-04-03T06:53:50;6.07;;;1.70;;
71095;SDS011;58753;49.440;11.126;2023-04-03T06:56:16;5.05;;;1.52;;
71095;SDS011;58753;49.440;11.126;2023-04-03T06:58:42;6.20;;;2.00;;
71095;SDS011;58753;49.440;11.126;2023-04-03T07:01:09;5.97;;;1.88;;
71095;SDS011;58753;49.440;11.126;2023-04-03T07:03:36;3.65;;;1.52;;
71095;SDS011;58753;49.440;11.126;2023-04-03T07:06:02;4.23;;;1.23;;
71095;SDS011;58753;49.440;11.126;2023-04-03T07:08:29;4.25;;;1.33;;
71095;SDS011;58753;49.440;11.126;2023-04-03T07:10:54;5.63;;;1.50;;
71095;SDS011;58753;49.440;11.126;2023-04-03T07:13:20;2.67;;;1.33;;
71095;SDS011;58753;49.440;11.126;2023-04-03T07:15:45;4.67;;;1.43;;
71095;SDS011;58753;49.440;11.126;2023-04-03T07:18:10;3.83;;;1.60;;
71095;SDS011;58753;49.440;11.126;2023-04-03T07:20:36;5.93;;;1.50;;
71095;SDS011;58753;49.440;11.126;2023-04-03T07:23:01;5.17;;;1.50;;
71095;SDS011;58753;49.440;11.126;2023-04-03T07:25:27;4.30;;;1.50;;
71095;SDS011;58753;49.440;11.126;2023-04-03T07:27:53;3.25;;;1.30;;
71095;SDS011;58753;49.440;11.126;2023-04-03T07:30:19;6.97;;;1.98;;
71095;SDS011;58753;49.440;11.126;2023-04-03T07:32:45;4.53;;;1.53;;
71095;SDS011;58753;49.440;11.126;2023-04-03T07:35:11;7.00;;;1.63;;
71095;SDS011;58753;49.440;11.126;2023-04-03T07:37:36;3.65;;;1.27;;
71095;SDS011;58753;49.440;11.126;2023-04-03T07:40:02;3.70;;;1.80;;
71095;SDS011;58753;49.440;11.126;2023-04-03T07:42:28;4.25;;;1.65;;
71095;SDS011;58753;49.440;11.126;2023-04-03T07:44:54;3.30;;;1.30;;
71095;SDS011;58753;49.440;11.126;2023-04-03T07:47:20;2.70;;;1.23;;
71095;SDS011;58753;49.440;11.126;2023-04-03T07:49:46;4.33;;;1.60;;
71095;SDS011;58753;49.440;11.126;2023-04-03T07:52:12;4.30;;;1.67;;
71095;SDS011;58753;49.440;11.126;2023-04-03T07:54:39;3.20;;;1.42;;
71095;SDS011;58753;49.440;11.126;2023-04-03T07:57:05;3.20;;;1.53;;
71095;SDS011;58753;49.440;11.126;2023-04-03T07:59:30;6.35;;;1.83;;
71095;SDS011;58753;49.440;11.126;2023-04-03T08:01:56;5.77;;;1.37;;
71095;SDS011;58753;49.440;11.126;2023-04-03T08:04:22;6.40;;;1.50;;
71095;SDS011;58753;49.440;11.126;2023-04-03T08:06:47;4.73;;;1.80;;
71095;SDS011;58753;49.440;11.126;2023-04-03T08:09:14;3.97;;;1.67;;
71095;SDS011;58753;49.440;11.126;2023-04-03T08:11:40;2.97;;;1.13;;
71095;SDS011;58753;49.440;11.126;2023-04-03T08:14:05;5.17;;;1.63;;
71095;SDS011;58753;49.440;11.126;2023-04-03T08:16:31;3.75;;;1.05;;
71095;SDS011;58753;49.440;11.126;2023-04-03T08:18:56;3.23;;;1.20;;
71095;SDS011;58753;49.440;11.126;2023-04-03T08:21:22;4.73;;;1.53;;
71095;SDS011;58753;49.440;11.126;2023-04-03T08:23:48;4.05;;;1.63;;
71095;SDS011;58753;49.440;11.126;2023-04-03T08:26:16;4.03;;;1.10;;
71095;SDS011;58753;49.440;11.126;2023-04-03T08:28:43;2.17;;;0.93;;
71095;SDS011;58753;49.440;11.126;2023-04-03T08:31:16;2.90;;;1.40;;
71095;SDS011;58753;49.440;11.126;2023-04-03T08:33:43;5.05;;;1.58;;
71095;SDS011;58753;49.440;11.126;2023-04-03T08:36:17;2.87;;;1.07;;
71095;SDS011;58753;49.440;11.126;2023-04-03T08:38:46;2.30;;;0.98;;
71095;SDS011;58753;49.440;11.126;2023-04-03T08:43:46;4.90;;;1.00;;
71095;SDS011;58753;49.440;11.126;2023-04-03T08:46:23;3.35;;;1.23;;
71095;SDS011;58753;49.440;11.126;2023-04-03T08:48:59;3.78;;;0.93;;
71095;SDS011;58753;49.440;11.126;2023-04-03T08:51:25;7.95;;;1.08;;
71095;SDS011;58753;49.440;11.126;2023-04-03T08:56:28;3.03;;;0.80;;
71095;SDS011;58753;49.440;11.126;2023-04-03T08:58:57;4.05;;;1.10;;
71095;SDS011;58753;49.440;11.126;2023-04-03T09:01:39;2.35;;;0.85;;
71095;SDS011;58753;49.440;11.126;2023-04-03T09:04:12;2.17;;;1.00;;
71095;SDS011;58753;49.440;11.126;2023-04-03T09:06:40;3.00;;;0.55;;
71095;SDS011;58753;49.440;11.126;2023-04-03T09:09:17;3.53;;;1.00;;
71095;SDS011;58753;49.440;11.126;2023-04-03T09:14:33;3.40;;;1.05;;
71095;SDS011;58753;49.440;11.126;2023-04-03T09:17:28;3.63;;;1.05;;
71095;SDS011;58753;49.440;11.126;2023-04-03T09:22:55;4.33;;;1.43;;
71095;SDS011;58753;49.440;11.126;2023-04-03T09:25:28;3.10;;;0.93;;
71095;SDS011;58753;49.440;11.126;2023-04-03T09:27:58;5.25;;;1.23;;
71095;SDS011;58753;49.440;11.126;2023-04-03T09:30:25;3.37;;;1.43;;
71095;SDS011;58753;49.440;11.126;2023-04-03T09:32:53;3.80;;;1.08;;
71095;SDS011;58753;49.440;11.126;2023-04-03T09:35:21;2.95;;;0.95;;
71095;SDS011;58753;49.440;11.126;2023-04-03T09:38:37;2.03;;;0.70;;
71095;SDS011;58753;49.440;11.126;2023-04-03T09:40:45;3.95;;;0.80;;
71095;SDS011;58753;49.440;11.126;2023-04-03T09:45:45;2.85;;;1.13;;
71095;SDS011;58753;49.440;11.126;2023-04-03T09:50:38;4.43;;;0.98;;
71095;SDS011;58753;49.440;11.126;2023-04-03T09:55:52;4.03;;;1.00;;
71095;SDS011;58753;49.440;11.126;2023-04-03T09:58:31;2.43;;;1.07;;
71095;SDS011;58753;49.440;11.126;2023-04-03T10:01:02;7.05;;;1.38;;
71095;SDS011;58753;49.440;11.126;2023-04-03T10:05:53;4.23;;;1.07;;
71095;SDS011;58753;49.440;11.126;2023-04-03T10:08:22;4.15;;;0.90;;
71095;SDS011;58753;49.440;11.126;2023-04-03T10:11:04;7.90;;;1.20;;
71095;SDS011;58753;49.440;11.126;2023-04-03T10:13:35;4.93;;;0.90;;
71095;SDS011;58753;49.440;11.126;2023-04-03T10:16:08;4.27;;;0.97;;
71095;SDS011;58753;49.440;11.126;2023-04-03T10:23:44;3.08;;;1.00;;
71095;SDS011;58753;49.440;11.126;2023-04-03T10:29:10;4.45;;;0.98;;
71095;SDS011;58753;49.440;11.126;2023-04-03T10:31:50;6.85;;;0.80;;
71095;SDS011;58753;49.440;11.126;2023-04-03T10:34:28;2.67;;;0.80;;
71095;SDS011;58753;49.440;11.126;2023-04-03T10:40:15;2.80;;;1.03;;
71095;SDS011;58753;49.440;11.126;2023-04-03T10:45:49;1.60;;;0.73;;
71095;SDS011;58753;49.440;11.126;2023-04-03T10:56:20;4.22;;;1.35;;
71095;SDS011;58753;49.440;11.126;2023-04-03T10:59:06;1.67;;;0.70;;
71095;SDS011;58753;49.440;11.126;2023-04-03T11:01:48;3.85;;;0.90;;
71095;SDS011;58753;49.440;11.126;2023-04-03T11:04:19;3.95;;;1.30;;
71095;SDS011;58753;49.440;11.126;2023-04-03T11:06:58;3.80;;;1.13;;
71095;SDS011;58753;49.440;11.126;2023-04-03T11:09:34;3.80;;;1.50;;
71095;SDS011;58753;49.440;11.126;2023-04-03T11:12:06;3.22;;;1.20;;
71095;SDS011;58753;49.440;11.126;2023-04-03T11:14:35;2.53;;;1.10;;
71095;SDS011;58753;49.440;11.126;2023-04-03T11:22:35;3.25;;;1.02;;
71095;SDS011;58753;49.440;11.126;2023-04-03T11:27:57;2.47;;;0.90;;
71095;SDS011;58753;49.440;11.126;2023-04-03T11:35:43;3.43;;;0.83;;
71095;SDS011;58753;49.440;11.126;2023-04-03T11:38:14;2.75;;;0.80;;
71095;SDS011;58753;49.440;11.126;2023-04-03T11:40:47;2.80;;;0.80;;
71095;SDS011;58753;49.440;11.126;2023-04-03T11:43:29;3.17;;;1.20;;
71095;SDS011;58753;49.440;11.126;2023-04-03T11:50:56;2.83;;;1.20;;
71095;SDS011;58753;49.440;11.126;2023-04-03T11:53:43;2.45;;;1.33;;
71095;SDS011;58753;49.440;11.126;2023-04-03T12:04:13;2.47;;;0.97;;
71095;SDS011;58753;49.440;11.126;2023-04-03T12:12:49;2.47;;;1.30;;
71095;SDS011;58753;49.440;11.126;2023-04-03T12:17:45;4.85;;;1.40;;
71095;SDS011;58753;49.440;11.126;2023-04-03T12:26:00;2.70;;;1.30;;
71095;SDS011;58753;49.440;11.126;2023-04-03T12:28:46;2.65;;;1.23;;
71095;SDS011;58753;49.440;11.126;2023-04-03T12:31:14;2.20;;;1.30;;
71095;SDS011;58753;49.440;11.126;2023-04-03T12:33:55;2.33;;;1.23;;
71095;SDS011;58753;49.440;11.126;2023-04-03T12:45:17;2.63;;;0.90;;
71095;SDS011;58753;49.440;11.126;2023-04-03T12:47:45;3.55;;;1.17;;
71095;SDS011;58753;49.440;11.126;2023-04-03T12:50:21;2.22;;;1.08;;
71095;SDS011;58753;49.440;11.126;2023-04-03T12:53:35;2.50;;;1.10;;
71095;SDS011;58753;49.440;11.126;2023-04-03T12:55:43;2.13;;;1.20;;
71095;SDS011;58753;49.440;11.126;2023-04-03T12:58:15;2.40;;;1.30;;
71095;SDS011;58753;49.440;11.126;2023-04-03T13:01:02;2.35;;;1.20;;
71095;SDS011;58753;49.440;11.126;2023-04-03T13:03:44;2.20;;;1.00;;
71095;SDS011;58753;49.440;11.126;2023-04-03T13:06:13;2.27;;;1.00;;
71095;SDS011;58753;49.440;11.126;2023-04-03T13:08:51;4.25;;;1.13;;
71095;SDS011;58753;49.440;11.126;2023-04-03T13:11:25;3.10;;;1.10;;
71095;SDS011;58753;49.440;11.126;2023-04-03T13:13:58;3.80;;;1.10;;
71095;SDS011;58753;49.440;11.126;2023-04-03T13:16:26;4.05;;;1.60;;
71095;SDS011;58753;49.440;11.126;2023-04-03T13:18:53;3.50;;;1.23;;
71095;SDS011;58753;49.440;11.126;2023-04-03T13:21:20;3.85;;;1.50;;
71095;SDS011;58753;49.440;11.126;2023-04-03T13:23:58;4.07;;;1.63;;
71095;SDS011;58753;49.440;11.126;2023-04-03T13:26:27;4.78;;;1.48;;
71095;SDS011;58753;49.440;11.126;2023-04-03T13:28:57;3.60;;;1.17;;
71095;SDS011;58753;49.440;11.126;2023-04-03T13:31:32;2.38;;;0.88;;
71095;SDS011;58753;49.440;11.126;2023-04-03T13:36:40;2.43;;;0.97;;
71095;SDS011;58753;49.440;11.126;2023-04-03T13:39:35;3.65;;;1.30;;
71095;SDS011;58753;49.440;11.126;2023-04-03T13:44:48;2.92;;;1.10;;
71095;SDS011;58753;49.440;11.126;2023-04-03T13:49:46;2.35;;;1.10;;
71095;SDS011;58753;49.440;11.126;2023-04-03T13:52:28;4.40;;;1.00;;
71095;SDS011;58753;49.440;11.126;2023-04-03T13:55:03;2.00;;;0.80;;
71095;SDS011;58753;49.440;11.126;2023-04-03T14:00:37;2.20;;;1.50;;
71095;SDS011;58753;49.440;11.126;2023-04-03T14:03:30;1.90;;;1.20;;
71095;SDS011;58753;49.440;11.126;2023-04-03T14:06:05;2.40;;;1.40;;
71095;SDS011;58753;49.440;11.126;2023-04-03T14:08:31;2.35;;;1.10;;
71095;SDS011;58753;49.440;11.126;2023-04-03T14:10:57;3.50;;;1.30;;
71095;SDS011;58753;49.440;11.126;2023-04-03T14:13:22;2.53;;;1.33;;
71095;SDS011;58753;49.440;11.126;2023-04-03T14:15:48;2.90;;;1.00;;
71095;SDS011;58753;49.440;11.126;2023-04-03T14:18:16;3.10;;;1.47;;
71095;SDS011;58753;49.440;11.126;2023-04-03T14:20:44;2.88;;;0.65;;
71095;SDS011;58753;49.440;11.126;2023-04-03T14:23:10;2.92;;;1.20;;
71095;SDS011;58753;49.440;11.126;2023-04-03T14:25:36;3.00;;;0.90;;
71095;SDS011;58753;49.440;11.126;2023-04-03T14:28:06;4.70;;;1.42;;
71095;SDS011;58753;49.440;11.126;2023-04-03T14:30:40;4.47;;;1.70;;
71095;SDS011;58753;49.440;11.126;2023-04-03T14:33:05;1.80;;;0.90;;
71095;SDS011;58753;49.440;11.126;2023-04-03T14:35:31;4.15;;;1.13;;
71095;SDS011;58753;49.440;11.126;2023-04-03T14:37:56;2.40;;;1.13;;
71095;SDS011;58753;49.440;11.126;2023-04-03T14:40:23;3.50;;;1.03;;
71095;SDS011;58753;49.440;11.126;2023-04-03T14:42:50;3.38;;;1.50;;
71095;SDS011;58753;49.440;11.126;2023-04-03T14:45:17;2.70;;;1.38;;
71095;SDS011;58753;49.440;11.126;2023-04-03T14:48:02;3.37;;;1.00;;
71095;SDS011;58753;49.440;11.126;2023-04-03T14:50:28;2.83;;;0.80;;
71095;SDS011;58753;49.440;11.126;2023-04-03T14:52:54;3.17;;;0.97;;
71095;SDS011;58753;49.440;11.126;2023-04-03T14:55:23;3.53;;;1.00;;
71095;SDS011;58753;49.440;11.126;2023-04-03T14:57:49;2.38;;;0.95;;
71095;SDS011;58753;49.440;11.126;2023-04-03T15:00:17;2.63;;;0.85;;
71095;SDS011;58753;49.440;11.126;2023-04-03T15:02:44;3.20;;;1.10;;
71095;SDS011;58753;49.440;11.126;2023-04-03T15:05:10;6.17;;;1.90;;
71095;SDS011;58753;49.440;11.126;2023-04-03T15:07:40;4.25;;;1.17;;
71095;SDS011;58753;49.440;11.126;2023-04-03T15:10:19;2.55;;;1.00;;
71095;SDS011;58753;49.440;11.126;2023-04-03T15:12:47;2.05;;;0.80;;
71095;SDS011;58753;49.440;11.126;2023-04-03T15:15:14;4.78;;;2.33;;
71095;SDS011;58753;49.440;11.126;2023-04-03T15:17:41;5.77;;;1.43;;
71095;SDS011;58753;49.440;11.126;2023-04-03T15:20:12;3.13;;;1.02;;
71095;SDS011;58753;49.440;11.126;2023-04-03T15:22:40;3.03;;;1.60;;
71095;SDS011;58753;49.440;11.126;2023-04-03T15:25:05;2.80;;;1.20;;
71095;SDS011;58753;49.440;11.126;2023-04-03T15:27:31;2.83;;;1.02;;
71095;SDS011;58753;49.440;11.126;2023-04-03T15:29:57;2.10;;;1.07;;
71095;SDS011;58753;49.440;11.126;2023-04-03T15:32:22;3.20;;;1.00;;
71095;SDS011;58753;49.440;11.126;2023-04-03T15:34:47;2.23;;;0.90;;
71095;SDS011;58753;49.440;11.126;2023-04-03T15:37:13;1.67;;;0.90;;
71095;SDS011;58753;49.440;11.126;2023-04-03T15:39:38;2.77;;;1.43;;
71095;SDS011;58753;49.440;11.126;2023-04-03T15:42:03;2.70;;;1.30;;
71095;SDS011;58753;49.440;11.126;2023-04-03T15:44:31;5.50;;;1.40;;
71095;SDS011;58753;49.440;11.126;2023-04-03T15:46:58;3.25;;;1.40;;
71095;SDS011;58753;49.440;11.126;2023-04-03T15:49:23;2.77;;;1.10;;
71095;SDS011;58753;49.440;11.126;2023-04-03T15:51:49;3.60;;;1.27;;
71095;SDS011;58753;49.440;11.126;2023-04-03T15:54:15;2.07;;;1.10;;
71095;SDS011;58753;49.440;11.126;2023-04-03T15:56:41;3.28;;;1.30;;
71095;SDS011;58753;49.440;11.126;2023-04-03T15:59:06;3.80;;;0.80;;
71095;SDS011;58753;49.440;11.126;2023-04-03T16:01:32;3.67;;;1.50;;
71095;SDS011;58753;49.440;11.126;2023-04-03T16:03:57;2.83;;;1.10;;
71095;SDS011;58753;49.440;11.126;2023-04-03T16:06:23;2.37;;;1.00;;
71095;SDS011;58753;49.440;11.126;2023-04-03T16:08:49;2.55;;;1.20;;
71095;SDS011;58753;49.440;11.126;2023-04-03T16:11:15;2.00;;;0.82;;
71095;SDS011;58753;49.440;11.126;2023-04-03T16:13:41;4.87;;;0.83;;
71095;SDS011;58753;49.440;11.126;2023-04-03T16:16:07;3.33;;;1.05;;
71095;SDS011;58753;49.440;11.126;2023-04-03T16:18:33;4.68;;;1.35;;
71095;SDS011;58753;49.440;11.126;2023-04-03T16:20:59;3.00;;;0.80;;
71095;SDS011;58753;49.440;11.126;2023-04-03T16:23:25;1.92;;;0.75;;
71095;SDS011;58753;49.440;11.126;2023-04-03T16:25:50;4.60;;;1.17;;
71095;SDS011;58753;49.440;11.126;2023-04-03T16:28:16;2.70;;;1.00;;
71095;SDS011;58753;49.440;11.126;2023-04-03T16:30:42;4.13;;;1.08;;
71095;SDS011;58753;49.440;11.126;2023-04-03T16:33:09;5.35;;;1.10;;
71095;SDS011;58753;49.440;11.126;2023-04-03T16:35:36;2.20;;;0.85;;
71095;SDS011;58753;49.440;11.126;2023-04-03T16:38:01;4.07;;;1.03;;
71095;SDS011;58753;49.440;11.126;2023-04-03T16:40:27;4.90;;;1.33;;
71095;SDS011;58753;49.440;11.126;2023-04-03T16:42:52;2.83;;;0.90;;